Anjeliersgracht — PCGQ — position and weather

sailwx.info

Track history (hours):
 
Tides and Currents Weather Stations Pressure Air Temp Water Temp Dewpoint Dewpoint Depression Visibility Wind Speed Wind Dir Waves Ship Positions

Anjeliersgracht

Last reported at 2014-Sep-29 08:33 UTC. Time now 2014-Sep-30 19:59 UTC.
Position N 50°32' W 000°16'.

Length 130 m; beam 19 m; draft 9 m.

Type: Cargo ship. MMSI: 244716000.

Date/timePositionNaut miles runAvg speedWind from/ knotsBaromVisibWave heightAir tempDewpointWater temp
2014-Sep-29 08:33N 50°32' W 000°16'1312.7
2014-Sep-29 07:32N 50°34' E 000°04'1413.5
2014-Sep-29 06:31N 50°37' E 000°26'1313.1
2014-Sep-29 05:33N 50°42' E 000°43'2412.0
2014-Sep-29 03:33N 50°57' E 001°14'1110.3
2014-Sep-29 02:30N 51°04' E 001°27'1010.3
2014-Sep-29 01:32N 51°10' E 001°39'1111.6
2014-Sep-29 00:34N 51°20' E 001°49'1313.4
2014-Sep-28 23:33N 51°31' E 002°00'1514.6
2014-Sep-28 22:33N 51°44' E 002°10'1513.9
2014-Sep-28 21:29N 51°59' E 002°15'1313.5
2014-Sep-28 20:33N 52°11' E 002°15'1312.3
2014-Sep-28 19:28N 52°25' E 002°12'1111.5
2014-Sep-28 18:33N 52°35' E 002°06'1110.7
2014-Sep-28 17:34N 52°45' E 002°00'1010.4
2014-Sep-28 16:34N 52°51' E 001°46'8 7.8
2014-Sep-28 15:33N 52°56' E 001°36'1010.0
2014-Sep-28 14:33N 53°03' E 001°25'1212.0
2014-Sep-28 13:32N 53°14' E 001°16'29 9.5
2014-Sep-28 10:32N 53°30' E 000°36'7 6.7
2014-Sep-28 09:32N 53°32' E 000°26'9 9.2
2014-Sep-28 08:33N 53°33' E 000°10'1211.9
2014-Sep-28 07:33N 53°38' W 000°08'8 8.4
2014-Sep-28 06:33N 53°44' W 000°16'1 0.6
2014-Sep-28 05:33N 53°45' W 000°16'0 0.0
2014-Sep-28 04:34N 53°45' W 000°16'0 0.0
2014-Sep-28 03:30N 53°45' W 000°16'0 0.0
2014-Sep-28 02:33N 53°45' W 000°16'0 0.0
2014-Sep-28 01:33N 53°45' W 000°16'0 0.0
2014-Sep-28 00:30N 53°45' W 000°16'0 0.0
2014-Sep-27 23:33N 53°45' W 000°16'0 0.0
2014-Sep-27 22:33N 53°45' W 000°16'0 0.0
2014-Sep-27 21:30N 53°45' W 000°16'0 0.0
2014-Sep-27 20:33N 53°45' W 000°16'0 0.0
2014-Sep-27 19:34N 53°45' W 000°16'0 0.0
2014-Sep-27 18:33N 53°45' W 000°16'0 0.0
2014-Sep-27 17:33N 53°45' W 000°16'0 0.0
2014-Sep-27 16:33N 53°45' W 000°16'0 0.0
2014-Sep-27 15:30N 53°45' W 000°16'0 0.0
2014-Sep-27 14:30N 53°45' W 000°16'0 0.0
2014-Sep-27 13:30N 53°45' W 000°16'0 0.0
2014-Sep-27 12:30N 53°45' W 000°16'0 0.0
2014-Sep-27 11:30N 53°45' W 000°16'0 0.0
2014-Sep-27 10:33N 53°45' W 000°16'0 0.0
2014-Sep-27 09:33N 53°45' W 000°16'0 0.0
2014-Sep-27 08:34N 53°45' W 000°16'0 0.0
2014-Sep-27 07:34N 53°45' W 000°16'0 0.0
2014-Sep-27 06:34N 53°45' W 000°16'0 0.0
2014-Sep-27 05:33N 53°45' W 000°16'0 0.0
2014-Sep-27 04:34N 53°45' W 000°16'0 0.0
2014-Sep-27 03:34N 53°45' W 000°16'0 0.0
2014-Sep-27 02:33N 53°45' W 000°16'0 0.0
2014-Sep-27 01:34N 53°45' W 000°16'0 0.0
2014-Sep-27 00:34N 53°45' W 000°16'0 0.0
2014-Sep-26 23:33N 53°45' W 000°16'0 0.0
2014-Sep-26 22:33N 53°45' W 000°16'0 0.0
2014-Sep-26 21:34N 53°45' W 000°16'0 0.0
2014-Sep-26 20:34N 53°44' W 000°16'0 0.0
2014-Sep-26 19:34N 53°45' W 000°16'0 0.0
2014-Sep-26 18:33N 53°45' W 000°16'0 0.0
2014-Sep-26 17:33N 53°45' W 000°16'0 0.0
2014-Sep-26 16:34N 53°45' W 000°16'0 0.0
2014-Sep-26 15:34N 53°45' W 000°16'0 0.0
2014-Sep-26 14:34N 53°45' W 000°16'0 0.0
2014-Sep-26 13:34N 53°45' W 000°16'0 0.0
2014-Sep-26 12:34N 53°45' W 000°16'0 0.0
2014-Sep-26 11:33N 53°45' W 000°16'0 0.0
2014-Sep-26 10:34N 53°45' W 000°16'0 0.0
2014-Sep-26 09:33N 53°45' W 000°16'0 0.4
2014-Sep-26 08:33N 53°44' W 000°16'3 2.6
2014-Sep-26 07:33N 53°42' W 000°14'10 9.6
2014-Sep-26 06:34N 53°36' W 000°02'1110.6
2014-Sep-26 05:33N 53°34' E 000°15'1312.8
2014-Sep-26 04:33N 53°46' E 000°19'9 8.9
2014-Sep-26 03:33N 53°55' E 000°18'4 4.2
2014-Sep-26 02:33N 53°51' E 000°19'1211.6
2014-Sep-26 01:33N 54°01' E 000°10'5 4.8
2014-Sep-26 00:34N 53°57' E 000°13'10 9.5
2014-Sep-25 23:33N 54°05' E 000°07'1010.4
2014-Sep-25 22:33N 54°14' W 000°05'1111.0
2014-Sep-25 21:33N 54°22' W 000°16'1111.5
2014-Sep-25 20:33N 54°31' W 000°30'1312.4
2014-Sep-25 19:33N 54°36' W 000°49'15 6.4
2014-Sep-25 17:17N 54°35' W 001°14'0 0.0
2014-Sep-25 15:32N 54°35' W 001°14'0 0.0
2014-Sep-25 14:32N 54°35' W 001°14'0 0.0
2014-Sep-25 13:32N 54°35' W 001°14'0 0.0
2014-Sep-25 12:23N 54°35' W 001°14'0 0.0
2014-Sep-25 11:16N 54°35' W 001°14'0 0.0
2014-Sep-25 09:23N 54°35' W 001°14'0 0.0
2014-Sep-25 07:26N 54°35' W 001°14'0 0.0
2014-Sep-24 17:20N 54°35' W 001°14'0 0.0
2014-Sep-24 16:20N 54°35' W 001°14'0 0.0
2014-Sep-24 15:17N 54°35' W 001°14'0 0.0
2014-Sep-24 14:32N 54°35' W 001°14'0 0.0
2014-Sep-24 13:04N 54°35' W 001°14'0 0.0
2014-Sep-24 12:31N 54°35' W 001°14'0 0.0
2014-Sep-24 11:04N 54°35' W 001°14'0 0.0
2014-Sep-24 10:19N 54°35' W 001°14'0 0.0
2014-Sep-24 09:19N 54°35' W 001°14'0 0.0
2014-Sep-24 08:07N 54°35' W 001°14'0 0.0
2014-Sep-24 07:22N 54°35' W 001°14'0 0.0
2014-Sep-24 05:22N 54°35' W 001°14'0 0.0
2014-Sep-23 17:28N 54°35' W 001°14'0 0.0
2014-Sep-23 16:16N 54°35' W 001°14'0 0.0
2014-Sep-23 15:31N 54°35' W 001°14'0 0.0
2014-Sep-23 14:19N 54°35' W 001°14'0 0.0
2014-Sep-23 13:31N 54°35' W 001°14'0 0.0
2014-Sep-23 12:16N 54°35' W 001°14'0 0.0
2014-Sep-23 10:04N 54°35' W 001°14'0 0.0
2014-Sep-23 09:22N 54°35' W 001°14'0 0.0
2014-Sep-23 07:07N 54°35' W 001°14'0 0.0
2014-Sep-23 06:22N 54°35' W 001°14'0 0.0
2014-Sep-23 05:34N 54°35' W 001°14'0 0.0
2014-Sep-22 17:30N 54°35' W 001°14'0 0.0
2014-Sep-22 16:12N 54°35' W 001°14'0 0.0
2014-Sep-22 15:30N 54°35' W 001°14'0 0.0
2014-Sep-22 14:30N 54°35' W 001°14'0 0.0
2014-Sep-22 13:30N 54°35' W 001°14'0 0.0
2014-Sep-22 12:33N 54°35' W 001°14'0 0.0
2014-Sep-22 11:30N 54°35' W 001°14'0 0.0
2014-Sep-22 10:30N 54°35' W 001°14'0 0.0
2014-Sep-22 09:33N 54°35' W 001°14'0 0.0
2014-Sep-22 08:33N 54°35' W 001°14'0 0.0
2014-Sep-22 07:15N 54°35' W 001°14'0 0.0
2014-Sep-22 06:33N 54°35' W 001°14'0 0.0
2014-Sep-20 12:23N 54°35' W 001°14'0 0.0
2014-Sep-20 11:25N 54°35' W 001°14'0 0.0
2014-Sep-20 10:28N 54°35' W 001°14'0 0.0
2014-Sep-20 09:28N 54°35' W 001°14'0 0.0
2014-Sep-20 08:28N 54°35' W 001°14'0 0.0
2014-Sep-20 07:31N 54°35' W 001°14'0 0.0
2014-Sep-20 06:31N 54°35' W 001°14'0 0.0
2014-Sep-20 05:25N 54°35' W 001°14'0 0.0
2014-Sep-19 17:22N 54°35' W 001°14'0 0.0
2014-Sep-19 16:22N 54°35' W 001°14'0 0.0
2014-Sep-19 15:22N 54°35' W 001°14'0 0.0
2014-Sep-19 14:19N 54°35' W 001°14'0 0.0
2014-Sep-19 13:25N 54°35' W 001°14'0 0.0
2014-Sep-19 12:25N 54°35' W 001°14'0 0.0
2014-Sep-19 11:22N 54°35' W 001°14'0 0.0
2014-Sep-19 10:25N 54°35' W 001°14'0 0.0
2014-Sep-19 09:25N 54°35' W 001°14'  
Track history (hours):
 
Tides and Currents Weather Stations Pressure Air Temp Water Temp Dewpoint Dewpoint Depression Visibility Wind Speed Wind Dir Waves Ship Positions

Anjeliersgracht

Last reported at 2014-Sep-29 08:33 UTC. Time now 2014-Sep-30 19:59 UTC.
Position N 50°32' W 000°16'.

Length 130 m; beam 19 m; draft 9 m.

Type: Cargo ship. MMSI: 244716000.

Date/timePositionNaut miles runAvg speedWind from/ knotsBaromVisibWave heightAir tempDewpointWater temp
2014-Sep-29 08:33N 50°32' W 000°16'1312.7
2014-Sep-29 07:32N 50°34' E 000°04'1413.5
2014-Sep-29 06:31N 50°37' E 000°26'1313.1
2014-Sep-29 05:33N 50°42' E 000°43'2412.0
2014-Sep-29 03:33N 50°57' E 001°14'1110.3
2014-Sep-29 02:30N 51°04' E 001°27'1010.3
2014-Sep-29 01:32N 51°10' E 001°39'1111.6
2014-Sep-29 00:34N 51°20' E 001°49'1313.4
2014-Sep-28 23:33N 51°31' E 002°00'1514.6
2014-Sep-28 22:33N 51°44' E 002°10'1513.9
2014-Sep-28 21:29N 51°59' E 002°15'1313.5
2014-Sep-28 20:33N 52°11' E 002°15'1312.3
2014-Sep-28 19:28N 52°25' E 002°12'1111.5
2014-Sep-28 18:33N 52°35' E 002°06'1110.7
2014-Sep-28 17:34N 52°45' E 002°00'1010.4
2014-Sep-28 16:34N 52°51' E 001°46'8 7.8
2014-Sep-28 15:33N 52°56' E 001°36'1010.0
2014-Sep-28 14:33N 53°03' E 001°25'1212.0
2014-Sep-28 13:32N 53°14' E 001°16'29 9.5
2014-Sep-28 10:32N 53°30' E 000°36'7 6.7
2014-Sep-28 09:32N 53°32' E 000°26'9 9.2
2014-Sep-28 08:33N 53°33' E 000°10'1211.9
2014-Sep-28 07:33N 53°38' W 000°08'8 8.4
2014-Sep-28 06:33N 53°44' W 000°16'1 0.6
2014-Sep-28 05:33N 53°45' W 000°16'0 0.0
2014-Sep-28 04:34N 53°45' W 000°16'0 0.0
2014-Sep-28 03:30N 53°45' W 000°16'0 0.0
2014-Sep-28 02:33N 53°45' W 000°16'0 0.0
2014-Sep-28 01:33N 53°45' W 000°16'0 0.0
2014-Sep-28 00:30N 53°45' W 000°16'0 0.0
2014-Sep-27 23:33N 53°45' W 000°16'0 0.0
2014-Sep-27 22:33N 53°45' W 000°16'0 0.0
2014-Sep-27 21:30N 53°45' W 000°16'0 0.0
2014-Sep-27 20:33N 53°45' W 000°16'0 0.0
2014-Sep-27 19:34N 53°45' W 000°16'0 0.0
2014-Sep-27 18:33N 53°45' W 000°16'0 0.0
2014-Sep-27 17:33N 53°45' W 000°16'0 0.0
2014-Sep-27 16:33N 53°45' W 000°16'0 0.0
2014-Sep-27 15:30N 53°45' W 000°16'0 0.0
2014-Sep-27 14:30N 53°45' W 000°16'0 0.0
2014-Sep-27 13:30N 53°45' W 000°16'0 0.0
2014-Sep-27 12:30N 53°45' W 000°16'0 0.0
2014-Sep-27 11:30N 53°45' W 000°16'0 0.0
2014-Sep-27 10:33N 53°45' W 000°16'0 0.0
2014-Sep-27 09:33N 53°45' W 000°16'0 0.0
2014-Sep-27 08:34N 53°45' W 000°16'0 0.0
2014-Sep-27 07:34N 53°45' W 000°16'0 0.0
2014-Sep-27 06:34N 53°45' W 000°16'0 0.0
2014-Sep-27 05:33N 53°45' W 000°16'0 0.0
2014-Sep-27 04:34N 53°45' W 000°16'0 0.0
2014-Sep-27 03:34N 53°45' W 000°16'0 0.0
2014-Sep-27 02:33N 53°45' W 000°16'0 0.0
2014-Sep-27 01:34N 53°45' W 000°16'0 0.0
2014-Sep-27 00:34N 53°45' W 000°16'0 0.0
2014-Sep-26 23:33N 53°45' W 000°16'0 0.0
2014-Sep-26 22:33N 53°45' W 000°16'0 0.0
2014-Sep-26 21:34N 53°45' W 000°16'0 0.0
2014-Sep-26 20:34N 53°44' W 000°16'0 0.0
2014-Sep-26 19:34N 53°45' W 000°16'0 0.0
2014-Sep-26 18:33N 53°45' W 000°16'0 0.0
2014-Sep-26 17:33N 53°45' W 000°16'0 0.0
2014-Sep-26 16:34N 53°45' W 000°16'0 0.0
2014-Sep-26 15:34N 53°45' W 000°16'0 0.0
2014-Sep-26 14:34N 53°45' W 000°16'0 0.0
2014-Sep-26 13:34N 53°45' W 000°16'0 0.0
2014-Sep-26 12:34N 53°45' W 000°16'0 0.0
2014-Sep-26 11:33N 53°45' W 000°16'0 0.0
2014-Sep-26 10:34N 53°45' W 000°16'0 0.0
2014-Sep-26 09:33N 53°45' W 000°16'0 0.4
2014-Sep-26 08:33N 53°44' W 000°16'3 2.6
2014-Sep-26 07:33N 53°42' W 000°14'10 9.6
2014-Sep-26 06:34N 53°36' W 000°02'1110.6
2014-Sep-26 05:33N 53°34' E 000°15'1312.8
2014-Sep-26 04:33N 53°46' E 000°19'9 8.9
2014-Sep-26 03:33N 53°55' E 000°18'4 4.2
2014-Sep-26 02:33N 53°51' E 000°19'1211.6
2014-Sep-26 01:33N 54°01' E 000°10'5 4.8
2014-Sep-26 00:34N 53°57' E 000°13'10 9.5
2014-Sep-25 23:33N 54°05' E 000°07'1010.4
2014-Sep-25 22:33N 54°14' W 000°05'1111.0
2014-Sep-25 21:33N 54°22' W 000°16'1111.5
2014-Sep-25 20:33N 54°31' W 000°30'1312.4
2014-Sep-25 19:33N 54°36' W 000°49'15 6.4
2014-Sep-25 17:17N 54°35' W 001°14'0 0.0
2014-Sep-25 15:32N 54°35' W 001°14'0 0.0
2014-Sep-25 14:32N 54°35' W 001°14'0 0.0
2014-Sep-25 13:32N 54°35' W 001°14'0 0.0
2014-Sep-25 12:23N 54°35' W 001°14'0 0.0
2014-Sep-25 11:16N 54°35' W 001°14'0 0.0
2014-Sep-25 09:23N 54°35' W 001°14'0 0.0
2014-Sep-25 07:26N 54°35' W 001°14'0 0.0
2014-Sep-24 17:20N 54°35' W 001°14'0 0.0
2014-Sep-24 16:20N 54°35' W 001°14'0 0.0
2014-Sep-24 15:17N 54°35' W 001°14'0 0.0
2014-Sep-24 14:32N 54°35' W 001°14'0 0.0
2014-Sep-24 13:04N 54°35' W 001°14'0 0.0
2014-Sep-24 12:31N 54°35' W 001°14'0 0.0
2014-Sep-24 11:04N 54°35' W 001°14'0 0.0
2014-Sep-24 10:19N 54°35' W 001°14'0 0.0
2014-Sep-24 09:19N 54°35' W 001°14'0 0.0
2014-Sep-24 08:07N 54°35' W 001°14'0 0.0
2014-Sep-24 07:22N 54°35' W 001°14'0 0.0
2014-Sep-24 05:22N 54°35' W 001°14'0 0.0
2014-Sep-23 17:28N 54°35' W 001°14'0 0.0
2014-Sep-23 16:16N 54°35' W 001°14'0 0.0
2014-Sep-23 15:31N 54°35' W 001°14'0 0.0
2014-Sep-23 14:19N 54°35' W 001°14'0 0.0
2014-Sep-23 13:31N 54°35' W 001°14'0 0.0
2014-Sep-23 12:16N 54°35' W 001°14'0 0.0
2014-Sep-23 10:04N 54°35' W 001°14'0 0.0
2014-Sep-23 09:22N 54°35' W 001°14'0 0.0
2014-Sep-23 07:07N 54°35' W 001°14'0 0.0
2014-Sep-23 06:22N 54°35' W 001°14'0 0.0
2014-Sep-23 05:34N 54°35' W 001°14'0 0.0
2014-Sep-22 17:30N 54°35' W 001°14'0 0.0
2014-Sep-22 16:12N 54°35' W 001°14'0 0.0
2014-Sep-22 15:30N 54°35' W 001°14'0 0.0
2014-Sep-22 14:30N 54°35' W 001°14'0 0.0
2014-Sep-22 13:30N 54°35' W 001°14'0 0.0
2014-Sep-22 12:33N 54°35' W 001°14'0 0.0
2014-Sep-22 11:30N 54°35' W 001°14'0 0.0
2014-Sep-22 10:30N 54°35' W 001°14'0 0.0
2014-Sep-22 09:33N 54°35' W 001°14'0 0.0
2014-Sep-22 08:33N 54°35' W 001°14'0 0.0
2014-Sep-22 07:15N 54°35' W 001°14'0 0.0
2014-Sep-22 06:33N 54°35' W 001°14'0 0.0
2014-Sep-20 12:23N 54°35' W 001°14'0 0.0
2014-Sep-20 11:25N 54°35' W 001°14'0 0.0
2014-Sep-20 10:28N 54°35' W 001°14'0 0.0
2014-Sep-20 09:28N 54°35' W 001°14'0 0.0
2014-Sep-20 08:28N 54°35' W 001°14'0 0.0
2014-Sep-20 07:31N 54°35' W 001°14'0 0.0
2014-Sep-20 06:31N 54°35' W 001°14'0 0.0
2014-Sep-20 05:25N 54°35' W 001°14'0 0.0
2014-Sep-19 17:22N 54°35' W 001°14'0 0.0
2014-Sep-19 16:22N 54°35' W 001°14'0 0.0
2014-Sep-19 15:22N 54°35' W 001°14'0 0.0
2014-Sep-19 14:19N 54°35' W 001°14'0 0.0
2014-Sep-19 13:25N 54°35' W 001°14'0 0.0
2014-Sep-19 12:25N 54°35' W 001°14'0 0.0
2014-Sep-19 11:22N 54°35' W 001°14'0 0.0
2014-Sep-19 10:25N 54°35' W 001°14'0 0.0
2014-Sep-19 09:25N 54°35' W 001°14'  

Dump ship's entire track history